createdAt,value
2022-11-12T00:01:15.937Z,41.78
2022-11-12T00:03:48.124Z,44.83
2022-11-12T00:06:14.763Z,44.08
2022-11-12T00:08:44.401Z,45.70
2022-11-12T00:11:11.018Z,45.78
2022-11-12T00:13:38.053Z,45.92
2022-11-12T00:16:05.551Z,44.13
2022-11-12T00:18:50.401Z,39.30
2022-11-12T00:23:51.025Z,35.13
2022-11-12T00:26:17.725Z,37.45
2022-11-12T00:28:44.380Z,36.70
2022-11-12T00:31:12.148Z,38.60
2022-11-12T00:33:43.238Z,37.30
2022-11-12T00:36:13.021Z,35.45
2022-11-12T00:38:39.954Z,38.42
2022-11-12T00:41:12.838Z,40.58
2022-11-12T00:43:39.889Z,37.40
2022-11-12T00:46:06.927Z,35.03
2022-11-12T00:48:34.284Z,32.25
2022-11-12T00:51:03.315Z,33.50
2022-11-12T00:53:32.532Z,34.40
2022-11-12T00:56:07.443Z,34.83
2022-11-12T00:58:36.225Z,32.83
2022-11-12T01:01:15.913Z,35.13
2022-11-12T01:03:43.231Z,34.88
2022-11-12T01:06:16.534Z,31.42
2022-11-12T01:08:46.263Z,37.38
2022-11-12T01:11:19.595Z,33.20
2022-11-12T01:13:47.936Z,36.85
2022-11-12T01:16:17.482Z,34.38
2022-11-12T01:18:44.532Z,32.60
2022-11-12T01:21:11.322Z,27.98
2022-11-12T01:23:40.069Z,33.42
2022-11-12T01:26:11.612Z,30.48
2022-11-12T01:28:42.068Z,30.92
2022-11-12T01:31:16.914Z,32.67
2022-11-12T01:33:54.530Z,31.92
2022-11-12T01:36:42.077Z,30.50
2022-11-12T01:39:12.223Z,29.08
2022-11-12T01:41:46.405Z,29.02
2022-11-12T01:44:22.817Z,27.05
2022-11-12T01:47:17.904Z,27.08
2022-11-12T01:52:26.209Z,27.60
2022-11-12T01:55:03.675Z,28.50
2022-11-12T01:57:42.129Z,27.85
2022-11-12T02:00:16.883Z,28.02
2022-11-12T02:02:48.290Z,29.75
2022-11-12T02:05:18.388Z,26.80
2022-11-12T02:07:48.544Z,27.55
2022-11-12T02:10:19.306Z,28.75
2022-11-12T02:12:51.665Z,28.40
2022-11-12T02:15:20.821Z,29.30
2022-11-12T02:17:47.401Z,26.77
2022-11-12T02:20:15.084Z,28.20
2022-11-12T02:22:41.746Z,27.35
2022-11-12T02:25:16.916Z,27.77
2022-11-12T02:27:45.211Z,27.20
2022-11-12T02:30:12.598Z,28.65
2022-11-12T02:32:40.452Z,28.13
2022-11-12T02:35:32.092Z,27.55
2022-11-12T02:37:59.314Z,27.45
2022-11-12T02:40:31.237Z,29.00
2022-11-12T02:43:00.391Z,28.17
2022-11-12T02:45:27.851Z,28.40
2022-11-12T02:47:54.410Z,29.15
2022-11-12T02:50:26.022Z,31.73
2022-11-12T02:52:52.595Z,30.90
2022-11-12T02:55:19.265Z,30.73
2022-11-12T02:57:45.942Z,33.28
2022-11-12T03:00:14.085Z,32.72
2022-11-12T03:02:41.368Z,33.70
2022-11-12T03:05:11.837Z,31.73
2022-11-12T03:07:42.101Z,34.67
2022-11-12T03:10:11.628Z,34.58
2022-11-12T03:12:41.193Z,35.25
2022-11-12T03:15:11.498Z,32.72
2022-11-12T03:17:40.776Z,33.80
2022-11-12T03:20:13.502Z,32.75
2022-11-12T03:22:41.392Z,33.03
2022-11-12T03:25:12.090Z,30.85
2022-11-12T03:27:38.835Z,31.92
2022-11-12T03:30:05.993Z,30.70
2022-11-12T03:32:32.581Z,30.05
2022-11-12T03:34:59.564Z,28.88
2022-11-12T03:37:26.107Z,29.33
2022-11-12T03:39:55.508Z,29.20
2022-11-12T03:42:26.292Z,28.60
2022-11-12T03:44:52.888Z,27.70
2022-11-12T03:47:22.361Z,26.20
2022-11-12T03:49:54.150Z,26.73
2022-11-12T03:52:20.691Z,25.95
2022-11-12T03:54:47.336Z,25.65
2022-11-12T03:57:14.959Z,24.65
2022-11-12T03:59:42.057Z,23.60
2022-11-12T04:02:09.081Z,24.00
2022-11-12T04:04:35.703Z,23.25
2022-11-12T04:07:02.357Z,22.38
2022-11-12T04:09:30.585Z,22.75
2022-11-12T04:11:58.720Z,21.63
2022-11-12T04:14:27.922Z,19.60
2022-11-12T04:16:56.432Z,21.65
2022-11-12T04:19:23.242Z,21.17
2022-11-12T04:21:53.395Z,21.20
2022-11-12T04:24:42.730Z,21.10
2022-11-12T04:27:14.360Z,23.02
2022-11-12T04:29:43.502Z,22.77
2022-11-12T04:32:10.492Z,21.27
2022-11-12T04:34:37.130Z,22.65
2022-11-12T04:37:13.314Z,23.63
2022-11-12T04:39:41.581Z,22.67
2022-11-12T04:42:10.073Z,22.35
2022-11-12T04:44:36.670Z,21.15
2022-11-12T04:47:06.115Z,23.15
2022-11-12T04:49:32.704Z,23.70
2022-11-12T04:51:59.282Z,23.40
2022-11-12T04:54:25.989Z,22.42
2022-11-12T04:56:52.560Z,21.13
2022-11-12T04:59:19.118Z,21.83
2022-11-12T05:01:45.788Z,22.95
2022-11-12T05:04:13.458Z,21.70
2022-11-12T05:06:40.050Z,20.40
2022-11-12T05:09:06.645Z,21.48
2022-11-12T05:11:33.358Z,21.65
2022-11-12T05:14:00.045Z,19.95
2022-11-12T05:16:26.674Z,21.13
2022-11-12T05:18:53.293Z,21.15
2022-11-12T05:23:51.775Z,20.42
2022-11-12T05:26:27.179Z,20.08
2022-11-12T05:28:53.840Z,20.73
2022-11-12T05:31:20.434Z,20.48
2022-11-12T05:33:46.987Z,19.40
2022-11-12T05:36:13.710Z,18.42
2022-11-12T05:38:43.236Z,18.50
2022-11-12T05:41:10.025Z,17.73
2022-11-12T05:43:36.600Z,19.60
2022-11-12T05:46:03.214Z,18.92
2022-11-12T05:48:32.888Z,18.63
2022-11-12T05:51:12.566Z,17.90
2022-11-12T05:53:41.062Z,16.83
2022-11-12T05:56:09.157Z,17.20
2022-11-12T05:58:37.199Z,17.15
2022-11-12T06:01:04.080Z,16.55
2022-11-12T06:03:35.294Z,17.30
2022-11-12T06:06:01.842Z,16.63
2022-11-12T06:08:29.255Z,15.52
2022-11-12T06:10:56.669Z,15.15
2022-11-12T06:13:29.027Z,16.10
2022-11-12T06:15:56.358Z,16.42
2022-11-12T06:18:26.550Z,14.70
2022-11-12T06:20:53.367Z,15.85
2022-11-12T06:23:19.912Z,14.68
2022-11-12T06:25:47.106Z,15.15
2022-11-12T06:28:18.129Z,15.23
2022-11-12T06:30:49.957Z,15.27
2022-11-12T06:33:16.587Z,14.98
2022-11-12T06:35:43.453Z,15.80
2022-11-12T06:38:10.049Z,15.73
2022-11-12T06:40:36.698Z,15.90
2022-11-12T06:43:03.310Z,15.15
2022-11-12T06:45:33.755Z,14.70
2022-11-12T06:48:00.353Z,14.82
2022-11-12T06:50:27.255Z,13.75
2022-11-12T06:52:59.591Z,15.32
2022-11-12T06:55:26.135Z,15.13
2022-11-12T06:57:53.074Z,14.60
2022-11-12T07:00:20.195Z,13.48
2022-11-12T07:02:46.834Z,14.50
2022-11-12T07:05:13.515Z,13.85
2022-11-12T07:07:40.258Z,13.75
2022-11-12T07:10:07.322Z,13.02
2022-11-12T07:12:36.870Z,13.32
2022-11-12T07:15:08.843Z,12.65
2022-11-12T07:17:35.421Z,12.52
2022-11-12T07:20:03.901Z,12.05
2022-11-12T07:22:38.657Z,11.88
2022-11-12T07:27:32.331Z,12.05
2022-11-12T07:29:59.891Z,11.88
2022-11-12T07:32:26.453Z,11.45
2022-11-12T07:34:57.639Z,11.68
2022-11-12T07:37:24.176Z,10.15
2022-11-12T07:39:50.780Z,11.80
2022-11-12T07:42:23.805Z,10.43
2022-11-12T07:44:50.434Z,10.48
2022-11-12T07:47:17.031Z,10.80
2022-11-12T07:49:43.536Z,10.60
2022-11-12T07:52:10.171Z,9.15
2022-11-12T07:54:36.732Z,10.20
2022-11-12T07:57:03.361Z,11.13
2022-11-12T07:59:29.887Z,10.98
2022-11-12T08:01:58.866Z,10.00
2022-11-12T08:04:25.514Z,9.32
2022-11-12T08:06:52.661Z,9.52
2022-11-12T08:09:19.385Z,9.43
2022-11-12T08:11:51.091Z,10.00
2022-11-12T08:14:24.068Z,9.85
2022-11-12T08:16:50.682Z,8.90
2022-11-12T08:19:17.272Z,9.73
2022-11-12T08:21:45.350Z,8.43
2022-11-12T08:24:12.365Z,8.52
2022-11-12T08:26:38.932Z,9.10
2022-11-12T08:29:08.376Z,8.60
2022-11-12T08:31:35.577Z,8.88
2022-11-12T08:34:06.535Z,8.20
2022-11-12T08:36:33.189Z,7.95
2022-11-12T08:39:01.205Z,8.15
2022-11-12T08:41:28.109Z,7.93
2022-11-12T08:43:54.857Z,7.55
2022-11-12T08:46:26.193Z,7.60
2022-11-12T08:48:52.853Z,8.10
2022-11-12T08:51:19.561Z,6.70
2022-11-12T08:53:46.237Z,7.70
2022-11-12T08:56:12.875Z,7.35
2022-11-12T08:58:40.121Z,7.20
2022-11-12T09:01:14.425Z,7.10
2022-11-12T09:03:41.170Z,6.50
2022-11-12T09:06:08.830Z,7.03
2022-11-12T09:08:36.905Z,6.90
2022-11-12T09:11:07.026Z,6.63
2022-11-12T09:13:34.549Z,7.15
2022-11-12T09:16:04.842Z,6.05
2022-11-12T09:18:32.610Z,6.82
2022-11-12T09:23:37.118Z,7.55
2022-11-12T09:26:07.586Z,7.10
2022-11-12T09:28:37.372Z,7.30
2022-11-12T09:31:06.751Z,6.28
2022-11-12T09:33:34.105Z,6.70
2022-11-12T09:36:12.858Z,6.25
2022-11-12T09:38:40.021Z,6.97
2022-11-12T09:41:25.049Z,6.65
2022-11-12T09:44:05.408Z,6.45
2022-11-12T09:46:45.176Z,7.00
2022-11-12T09:49:37.910Z,6.72
2022-11-12T09:52:21.359Z,7.05
2022-11-12T09:54:59.005Z,6.88
2022-11-12T09:57:26.412Z,7.43
2022-11-12T09:59:53.058Z,7.47
2022-11-12T10:03:01.286Z,6.97
2022-11-12T10:05:43.064Z,7.60
2022-11-12T10:08:47.779Z,7.70
2022-11-12T10:14:38.942Z,8.15
2022-11-12T10:17:22.159Z,8.40
2022-11-12T10:20:18.479Z,8.40
2022-11-12T10:23:08.745Z,9.30
2022-11-12T10:28:38.897Z,8.30
2022-11-12T10:34:26.030Z,8.80
2022-11-12T10:37:12.455Z,8.98
2022-11-12T10:39:46.097Z,8.57
2022-11-12T10:42:16.470Z,9.52
2022-11-12T10:44:47.445Z,9.77
2022-11-12T10:47:27.311Z,8.63
2022-11-12T10:50:06.041Z,10.02
2022-11-12T10:52:32.630Z,9.32
2022-11-12T10:55:21.797Z,9.68
2022-11-12T10:58:13.933Z,9.73
2022-11-12T11:00:54.541Z,9.52
2022-11-12T11:03:28.369Z,8.90
2022-11-12T11:06:00.714Z,8.88
2022-11-12T11:08:48.174Z,9.50
2022-11-12T11:11:14.702Z,8.43
2022-11-12T11:13:41.279Z,9.35
2022-11-12T11:16:12.321Z,9.98
2022-11-12T11:18:42.797Z,9.18
2022-11-12T11:21:21.631Z,9.82
2022-11-12T11:24:21.298Z,10.75
2022-11-12T11:27:02.686Z,10.20
2022-11-12T11:29:54.778Z,10.98
2022-11-12T11:32:44.603Z,10.63
2022-11-12T11:35:21.985Z,10.60
2022-11-12T11:38:11.394Z,11.40
2022-11-12T11:40:56.738Z,10.95
2022-11-12T11:43:55.069Z,12.18
2022-11-12T11:46:21.950Z,10.52
2022-11-12T11:49:22.296Z,12.45
2022-11-12T11:51:54.757Z,10.77
2022-11-12T11:54:49.563Z,11.27
2022-11-12T11:57:30.914Z,12.48
2022-11-12T12:00:52.868Z,12.27
2022-11-12T12:03:57.050Z,14.38
2022-11-12T12:06:30.500Z,15.13
2022-11-12T12:09:16.083Z,15.10
2022-11-12T12:12:04.009Z,16.10
2022-11-12T12:14:35.281Z,16.30
2022-11-12T12:17:19.096Z,15.77
2022-11-12T12:19:48.971Z,15.97
2022-11-12T12:22:49.383Z,15.95
2022-11-12T12:25:22.848Z,18.52
2022-11-12T12:28:14.608Z,18.67
2022-11-12T12:30:51.528Z,19.20
2022-11-12T12:33:45.816Z,18.30
2022-11-12T12:36:20.595Z,18.77
2022-11-12T12:39:10.254Z,17.42
2022-11-12T12:41:53.714Z,18.00
2022-11-12T12:44:20.320Z,18.75
2022-11-12T12:46:57.527Z,17.15
2022-11-12T12:49:34.227Z,17.00
2022-11-12T12:52:00.920Z,18.17
2022-11-12T12:54:47.752Z,17.80
2022-11-12T12:57:36.752Z,16.35
2022-11-12T13:00:35.160Z,19.45
2022-11-12T13:03:02.826Z,19.10
2022-11-12T13:05:39.113Z,19.10
2022-11-12T13:08:32.505Z,18.15
2022-11-12T13:11:05.865Z,18.17
2022-11-12T13:13:38.084Z,17.58
2022-11-12T13:16:28.877Z,18.75
2022-11-12T13:18:57.623Z,19.50
2022-11-12T13:21:24.292Z,19.33
2022-11-12T13:24:02.664Z,21.02
2022-11-12T13:26:43.407Z,18.25
2022-11-12T13:29:36.233Z,17.75
2022-11-12T13:32:43.350Z,18.58
2022-11-12T13:35:23.561Z,19.38
2022-11-12T13:38:08.550Z,20.33
2022-11-12T13:40:58.317Z,20.30
2022-11-12T13:43:48.903Z,20.80
2022-11-12T13:46:28.815Z,18.33
2022-11-12T13:49:08.086Z,20.45
2022-11-12T13:51:43.962Z,19.80
2022-11-12T13:54:26.583Z,20.15
2022-11-12T13:57:19.407Z,19.45
2022-11-12T13:59:49.872Z,21.15
2022-11-12T14:02:23.789Z,19.50
2022-11-12T14:05:04.630Z,17.67
2022-11-12T14:08:05.049Z,19.88
2022-11-12T14:10:45.910Z,20.92
2022-11-12T14:13:43.371Z,17.63
2022-11-12T14:16:27.289Z,18.02
2022-11-12T14:21:40.075Z,19.30
2022-11-12T14:24:15.907Z,19.00
2022-11-12T14:26:43.269Z,19.50
2022-11-12T14:29:20.204Z,18.75
2022-11-12T14:31:46.918Z,18.70
2022-11-12T14:34:36.673Z,17.63
2022-11-12T14:37:07.221Z,18.80
2022-11-12T14:39:33.771Z,18.27
2022-11-12T14:42:03.227Z,16.30
2022-11-12T14:44:35.517Z,20.40
2022-11-12T14:47:03.065Z,19.40
2022-11-12T14:49:56.229Z,19.23
2022-11-12T14:52:34.803Z,16.40
2022-11-12T14:55:13.830Z,17.63
2022-11-12T14:57:42.168Z,17.20
2022-11-12T15:00:37.738Z,14.20
2022-11-12T15:03:05.192Z,16.95
2022-11-12T15:05:33.568Z,18.13
2022-11-12T15:08:02.034Z,16.33
2022-11-12T15:10:37.921Z,16.42
2022-11-12T15:13:20.359Z,15.80
2022-11-12T15:15:55.818Z,17.80
2022-11-12T15:18:29.219Z,17.50
2022-11-12T15:21:15.694Z,14.70
2022-11-12T15:23:48.383Z,15.88
2022-11-12T15:26:25.076Z,17.17
2022-11-12T15:29:20.949Z,18.58
2022-11-12T15:32:13.474Z,18.45
2022-11-12T15:34:40.652Z,18.25
2022-11-12T15:37:19.356Z,16.70
2022-11-12T15:39:59.961Z,15.48
2022-11-12T15:42:26.800Z,16.70
2022-11-12T15:45:19.236Z,15.18
2022-11-12T15:47:46.249Z,16.33
2022-11-12T15:50:24.925Z,17.52
2022-11-12T15:53:02.349Z,17.75
2022-11-12T15:55:30.180Z,19.13
2022-11-12T15:57:59.887Z,20.20
2022-11-12T16:00:45.226Z,21.38
2022-11-12T16:03:17.960Z,21.38
2022-11-12T16:05:45.897Z,20.55
2022-11-12T16:08:13.177Z,19.60
2022-11-12T16:10:42.015Z,18.50
2022-11-12T16:13:16.284Z,16.98
2022-11-12T16:15:49.541Z,16.60
2022-11-12T16:18:16.107Z,18.60
2022-11-12T16:20:42.842Z,18.20
2022-11-12T16:23:09.424Z,20.63
2022-11-12T16:25:38.014Z,19.17
2022-11-12T16:28:12.597Z,18.55
2022-11-12T16:30:39.211Z,18.98
2022-11-12T16:33:05.812Z,18.23
2022-11-12T16:35:35.455Z,18.83
2022-11-12T16:38:02.218Z,18.55
2022-11-12T16:40:30.514Z,16.85
2022-11-12T16:42:57.974Z,18.13
2022-11-12T16:45:31.997Z,15.77
2022-11-12T16:47:58.658Z,19.27
2022-11-12T16:50:27.904Z,18.80
2022-11-12T16:52:54.665Z,20.77
2022-11-12T16:55:24.678Z,17.95
2022-11-12T16:57:51.507Z,18.83
2022-11-12T17:00:43.732Z,18.73
2022-11-12T17:03:13.448Z,16.70
2022-11-12T17:05:39.979Z,16.40
2022-11-12T17:08:06.554Z,17.40
2022-11-12T17:10:33.166Z,17.33
2022-11-12T17:12:59.709Z,18.48
2022-11-12T17:15:26.348Z,17.90
2022-11-12T17:17:54.743Z,16.63
2022-11-12T17:20:21.367Z,16.23
2022-11-12T17:22:47.944Z,15.30
2022-11-12T17:25:17.276Z,17.08
2022-11-12T17:27:44.037Z,15.95
2022-11-12T17:30:11.189Z,17.30
2022-11-12T17:32:37.766Z,18.13
2022-11-12T17:35:04.915Z,16.85
2022-11-12T17:37:31.470Z,16.00
2022-11-12T17:39:58.027Z,16.52
2022-11-12T17:42:24.626Z,16.27
2022-11-12T17:47:23.680Z,14.20
2022-11-12T17:49:55.578Z,14.52
2022-11-12T17:52:28.590Z,13.45
2022-11-12T17:54:55.190Z,12.13
2022-11-12T17:57:21.827Z,14.60
2022-11-12T17:59:48.412Z,14.10
2022-11-12T18:02:14.998Z,13.95
2022-11-12T18:04:41.638Z,13.98
2022-11-12T18:07:08.352Z,13.75
2022-11-12T18:09:40.341Z,13.50
2022-11-12T18:12:06.967Z,15.20
2022-11-12T18:14:34.374Z,16.85
2022-11-12T18:17:02.843Z,15.48
2022-11-12T18:19:30.491Z,15.95
2022-11-12T18:21:57.091Z,13.35
2022-11-12T18:24:24.679Z,13.07
2022-11-12T18:26:52.917Z,16.20
2022-11-12T18:29:19.503Z,15.73
2022-11-12T18:31:47.852Z,16.70
2022-11-12T18:34:22.185Z,16.33
2022-11-12T18:36:48.737Z,15.15
2022-11-12T18:39:15.303Z,14.05
2022-11-12T18:41:42.181Z,15.60
2022-11-12T18:44:09.797Z,13.10
2022-11-12T18:46:36.368Z,14.75
2022-11-12T18:49:03.151Z,14.80
2022-11-12T18:51:29.934Z,16.20
2022-11-12T18:53:56.548Z,14.38
2022-11-12T18:56:23.092Z,13.95
2022-11-12T18:58:49.702Z,12.65
2022-11-12T19:01:22.377Z,15.68
2022-11-12T19:03:53.462Z,16.75
2022-11-12T19:06:20.269Z,15.75
2022-11-12T19:08:57.838Z,15.68
2022-11-12T19:11:24.509Z,15.85
2022-11-12T19:13:55.870Z,16.45
2022-11-12T19:16:23.516Z,16.80
2022-11-12T19:18:51.282Z,15.15
2022-11-12T19:21:21.242Z,17.90
2022-11-12T19:23:52.689Z,18.13
2022-11-12T19:26:22.943Z,17.47
2022-11-12T19:28:49.878Z,16.23
2022-11-12T19:31:27.346Z,19.10
2022-11-12T19:33:55.413Z,18.77
2022-11-12T19:36:26.126Z,19.70
2022-11-12T19:39:01.899Z,17.58
2022-11-12T19:41:28.582Z,18.00
2022-11-12T19:43:55.134Z,18.05
2022-11-12T19:46:21.741Z,16.33
2022-11-12T19:48:48.349Z,17.23
2022-11-12T19:51:14.957Z,14.90
2022-11-12T19:53:43.366Z,14.95
2022-11-12T19:56:11.392Z,14.82
2022-11-12T19:58:38.009Z,13.40
2022-11-12T20:01:09.563Z,14.23
2022-11-12T20:03:42.358Z,15.40
2022-11-12T20:06:22.766Z,13.80
2022-11-12T20:08:49.377Z,13.18
